sensor_id;sensor_type;location;lat;lon;timestamp;P1;durP1;ratioP1;P2;durP2;ratioP2
4652;SDS011;9900;48.738;9.306;2023-03-01T00:01:48;18.60;;;10.40;;
4652;SDS011;9900;48.738;9.306;2023-03-01T00:04:17;18.07;;;10.30;;
4652;SDS011;9900;48.738;9.306;2023-03-01T00:06:45;14.83;;;9.77;;
4652;SDS011;9900;48.738;9.306;2023-03-01T00:09:14;14.40;;;9.70;;
4652;SDS011;9900;48.738;9.306;2023-03-01T00:11:43;17.13;;;9.63;;
4652;SDS011;9900;48.738;9.306;2023-03-01T00:14:12;19.13;;;10.47;;
4652;SDS011;9900;48.738;9.306;2023-03-01T00:16:43;14.70;;;9.43;;
4652;SDS011;9900;48.738;9.306;2023-03-01T00:19:15;14.10;;;9.47;;
4652;SDS011;9900;48.738;9.306;2023-03-01T00:21:45;14.27;;;9.40;;
4652;SDS011;9900;48.738;9.306;2023-03-01T00:24:14;17.57;;;10.37;;
4652;SDS011;9900;48.738;9.306;2023-03-01T00:26:43;16.20;;;10.07;;
4652;SDS011;9900;48.738;9.306;2023-03-01T00:29:11;17.40;;;10.50;;
4652;SDS011;9900;48.738;9.306;2023-03-01T00:31:40;15.87;;;8.90;;
4652;SDS011;9900;48.738;9.306;2023-03-01T00:34:09;15.20;;;10.00;;
4652;SDS011;9900;48.738;9.306;2023-03-01T00:36:39;15.97;;;9.90;;
4652;SDS011;9900;48.738;9.306;2023-03-01T00:39:09;14.00;;;9.63;;
4652;SDS011;9900;48.738;9.306;2023-03-01T00:41:39;19.50;;;10.17;;
4652;SDS011;9900;48.738;9.306;2023-03-01T00:44:08;15.27;;;9.90;;
4652;SDS011;9900;48.738;9.306;2023-03-01T00:46:37;17.13;;;9.43;;
4652;SDS011;9900;48.738;9.306;2023-03-01T00:49:06;17.73;;;9.50;;
4652;SDS011;9900;48.738;9.306;2023-03-01T00:51:35;15.70;;;9.83;;
4652;SDS011;9900;48.738;9.306;2023-03-01T00:54:05;16.90;;;10.03;;
4652;SDS011;9900;48.738;9.306;2023-03-01T00:56:33;16.90;;;9.33;;
4652;SDS011;9900;48.738;9.306;2023-03-01T00:59:02;17.93;;;10.30;;
4652;SDS011;9900;48.738;9.306;2023-03-01T01:01:31;16.20;;;10.40;;
4652;SDS011;9900;48.738;9.306;2023-03-01T01:04:00;17.07;;;9.90;;
4652;SDS011;9900;48.738;9.306;2023-03-01T01:06:31;18.53;;;9.60;;
4652;SDS011;9900;48.738;9.306;2023-03-01T01:09:01;16.53;;;9.70;;
4652;SDS011;9900;48.738;9.306;2023-03-01T01:11:32;18.60;;;10.87;;
4652;SDS011;9900;48.738;9.306;2023-03-01T01:14:02;14.53;;;8.63;;
4652;SDS011;9900;48.738;9.306;2023-03-01T01:16:30;15.03;;;9.70;;
4652;SDS011;9900;48.738;9.306;2023-03-01T01:18:59;16.07;;;8.57;;
4652;SDS011;9900;48.738;9.306;2023-03-01T01:21:28;17.37;;;10.00;;
4652;SDS011;9900;48.738;9.306;2023-03-01T01:23:57;15.40;;;9.40;;
4652;SDS011;9900;48.738;9.306;2023-03-01T01:26:26;16.97;;;10.33;;
4652;SDS011;9900;48.738;9.306;2023-03-01T01:28:58;14.90;;;9.70;;
4652;SDS011;9900;48.738;9.306;2023-03-01T01:31:28;15.23;;;9.93;;
4652;SDS011;9900;48.738;9.306;2023-03-01T01:33:57;16.33;;;10.43;;
4652;SDS011;9900;48.738;9.306;2023-03-01T01:36:27;18.90;;;9.53;;
4652;SDS011;9900;48.738;9.306;2023-03-01T01:38:56;16.03;;;9.87;;
4652;SDS011;9900;48.738;9.306;2023-03-01T01:41:26;17.07;;;10.30;;
4652;SDS011;9900;48.738;9.306;2023-03-01T01:44:13;19.00;;;9.80;;
4652;SDS011;9900;48.738;9.306;2023-03-01T01:46:44;15.07;;;9.67;;
4652;SDS011;9900;48.738;9.306;2023-03-01T01:49:17;19.17;;;11.10;;
4652;SDS011;9900;48.738;9.306;2023-03-01T01:51:49;16.77;;;9.90;;
4652;SDS011;9900;48.738;9.306;2023-03-01T01:54:21;22.63;;;10.03;;
4652;SDS011;9900;48.738;9.306;2023-03-01T01:56:54;16.43;;;9.57;;
4652;SDS011;9900;48.738;9.306;2023-03-01T01:59:26;18.53;;;10.07;;
4652;SDS011;9900;48.738;9.306;2023-03-01T02:01:57;16.33;;;9.83;;
4652;SDS011;9900;48.738;9.306;2023-03-01T02:04:27;16.77;;;10.23;;
4652;SDS011;9900;48.738;9.306;2023-03-01T02:06:57;15.83;;;9.57;;
4652;SDS011;9900;48.738;9.306;2023-03-01T02:09:30;17.57;;;9.90;;
4652;SDS011;9900;48.738;9.306;2023-03-01T02:11:59;15.40;;;9.17;;
4652;SDS011;9900;48.738;9.306;2023-03-01T02:14:29;16.00;;;10.23;;
4652;SDS011;9900;48.738;9.306;2023-03-01T02:16:58;17.20;;;9.90;;
4652;SDS011;9900;48.738;9.306;2023-03-01T02:19:31;17.67;;;10.20;;
4652;SDS011;9900;48.738;9.306;2023-03-01T02:22:13;15.10;;;9.27;;
4652;SDS011;9900;48.738;9.306;2023-03-01T02:24:49;17.87;;;10.77;;
4652;SDS011;9900;48.738;9.306;2023-03-01T02:27:28;18.50;;;10.77;;
4652;SDS011;9900;48.738;9.306;2023-03-01T02:30:03;18.90;;;10.63;;
4652;SDS011;9900;48.738;9.306;2023-03-01T02:32:33;17.13;;;11.17;;
4652;SDS011;9900;48.738;9.306;2023-03-01T02:35:01;18.80;;;10.73;;
4652;SDS011;9900;48.738;9.306;2023-03-01T02:37:33;19.17;;;11.27;;
4652;SDS011;9900;48.738;9.306;2023-03-01T02:40:04;20.83;;;11.40;;
4652;SDS011;9900;48.738;9.306;2023-03-01T02:42:40;16.20;;;10.10;;
4652;SDS011;9900;48.738;9.306;2023-03-01T02:45:15;17.30;;;10.40;;
4652;SDS011;9900;48.738;9.306;2023-03-01T02:47:44;14.57;;;10.53;;
4652;SDS011;9900;48.738;9.306;2023-03-01T02:50:15;19.87;;;11.30;;
4652;SDS011;9900;48.738;9.306;2023-03-01T02:52:53;19.67;;;11.40;;
4652;SDS011;9900;48.738;9.306;2023-03-01T02:55:26;20.10;;;9.50;;
4652;SDS011;9900;48.738;9.306;2023-03-01T02:57:56;30.87;;;11.57;;
4652;SDS011;9900;48.738;9.306;2023-03-01T03:00:28;17.90;;;11.20;;
4652;SDS011;9900;48.738;9.306;2023-03-01T03:03:00;26.10;;;11.30;;
4652;SDS011;9900;48.738;9.306;2023-03-01T03:05:29;21.40;;;10.80;;
4652;SDS011;9900;48.738;9.306;2023-03-01T03:07:59;18.53;;;11.37;;
4652;SDS011;9900;48.738;9.306;2023-03-01T03:10:29;24.93;;;10.30;;
4652;SDS011;9900;48.738;9.306;2023-03-01T03:13:00;17.03;;;10.37;;
4652;SDS011;9900;48.738;9.306;2023-03-01T03:15:31;18.20;;;10.87;;
4652;SDS011;9900;48.738;9.306;2023-03-01T03:18:03;17.80;;;10.70;;
4652;SDS011;9900;48.738;9.306;2023-03-01T03:20:33;19.40;;;10.90;;
4652;SDS011;9900;48.738;9.306;2023-03-01T03:23:03;17.40;;;10.97;;
4652;SDS011;9900;48.738;9.306;2023-03-01T03:25:31;19.10;;;12.23;;
4652;SDS011;9900;48.738;9.306;2023-03-01T03:28:05;21.20;;;11.90;;
4652;SDS011;9900;48.738;9.306;2023-03-01T03:30:39;17.57;;;10.63;;
4652;SDS011;9900;48.738;9.306;2023-03-01T03:33:09;19.60;;;11.10;;
4652;SDS011;9900;48.738;9.306;2023-03-01T03:35:41;17.47;;;10.93;;
4652;SDS011;9900;48.738;9.306;2023-03-01T03:38:12;21.53;;;11.63;;
4652;SDS011;9900;48.738;9.306;2023-03-01T03:40:45;16.07;;;10.87;;
4652;SDS011;9900;48.738;9.306;2023-03-01T03:43:15;17.70;;;10.97;;
4652;SDS011;9900;48.738;9.306;2023-03-01T03:45:46;16.97;;;11.07;;
4652;SDS011;9900;48.738;9.306;2023-03-01T03:48:17;17.67;;;10.90;;
4652;SDS011;9900;48.738;9.306;2023-03-01T03:50:47;19.27;;;10.90;;
4652;SDS011;9900;48.738;9.306;2023-03-01T03:53:17;15.97;;;10.40;;
4652;SDS011;9900;48.738;9.306;2023-03-01T03:55:46;17.93;;;10.97;;
4652;SDS011;9900;48.738;9.306;2023-03-01T03:58:16;19.23;;;11.70;;
4652;SDS011;9900;48.738;9.306;2023-03-01T04:00:49;17.67;;;11.37;;
4652;SDS011;9900;48.738;9.306;2023-03-01T04:03:20;17.03;;;10.90;;
4652;SDS011;9900;48.738;9.306;2023-03-01T04:05:49;22.13;;;11.23;;
4652;SDS011;9900;48.738;9.306;2023-03-01T04:08:19;19.03;;;10.47;;
4652;SDS011;9900;48.738;9.306;2023-03-01T04:10:48;18.00;;;11.07;;
4652;SDS011;9900;48.738;9.306;2023-03-01T04:13:19;21.17;;;12.47;;
4652;SDS011;9900;48.738;9.306;2023-03-01T04:15:49;28.33;;;10.70;;
4652;SDS011;9900;48.738;9.306;2023-03-01T04:18:19;20.17;;;12.30;;
4652;SDS011;9900;48.738;9.306;2023-03-01T04:20:49;16.63;;;10.90;;
4652;SDS011;9900;48.738;9.306;2023-03-01T04:23:19;21.00;;;11.80;;
4652;SDS011;9900;48.738;9.306;2023-03-01T04:25:48;21.13;;;13.00;;
4652;SDS011;9900;48.738;9.306;2023-03-01T04:28:21;17.17;;;11.50;;
4652;SDS011;9900;48.738;9.306;2023-03-01T04:30:53;18.43;;;11.30;;
4652;SDS011;9900;48.738;9.306;2023-03-01T04:33:23;20.97;;;12.17;;
4652;SDS011;9900;48.738;9.306;2023-03-01T04:35:52;19.47;;;11.70;;
4652;SDS011;9900;48.738;9.306;2023-03-01T04:38:21;17.60;;;11.83;;
4652;SDS011;9900;48.738;9.306;2023-03-01T04:40:49;19.20;;;12.20;;
4652;SDS011;9900;48.738;9.306;2023-03-01T04:43:18;20.40;;;12.40;;
4652;SDS011;9900;48.738;9.306;2023-03-01T04:45:47;25.30;;;12.40;;
4652;SDS011;9900;48.738;9.306;2023-03-01T04:48:17;20.90;;;12.40;;
4652;SDS011;9900;48.738;9.306;2023-03-01T04:50:45;18.37;;;11.30;;
4652;SDS011;9900;48.738;9.306;2023-03-01T04:53:14;19.17;;;11.50;;
4652;SDS011;9900;48.738;9.306;2023-03-01T04:55:42;20.27;;;10.77;;
4652;SDS011;9900;48.738;9.306;2023-03-01T04:58:11;17.90;;;11.83;;
4652;SDS011;9900;48.738;9.306;2023-03-01T05:00:40;24.73;;;12.40;;
4652;SDS011;9900;48.738;9.306;2023-03-01T05:03:08;18.00;;;11.77;;
4652;SDS011;9900;48.738;9.306;2023-03-01T05:05:38;18.60;;;10.97;;
4652;SDS011;9900;48.738;9.306;2023-03-01T05:08:07;22.30;;;12.70;;
4652;SDS011;9900;48.738;9.306;2023-03-01T05:10:44;20.13;;;11.70;;
4652;SDS011;9900;48.738;9.306;2023-03-01T05:13:14;22.43;;;12.00;;
4652;SDS011;9900;48.738;9.306;2023-03-01T05:15:48;19.43;;;12.27;;
4652;SDS011;9900;48.738;9.306;2023-03-01T05:18:17;20.50;;;12.00;;
4652;SDS011;9900;48.738;9.306;2023-03-01T05:20:47;19.10;;;11.60;;
4652;SDS011;9900;48.738;9.306;2023-03-01T05:23:16;18.50;;;11.20;;
4652;SDS011;9900;48.738;9.306;2023-03-01T05:25:45;20.80;;;12.30;;
4652;SDS011;9900;48.738;9.306;2023-03-01T05:28:14;20.20;;;11.57;;
4652;SDS011;9900;48.738;9.306;2023-03-01T05:30:43;20.90;;;12.67;;
4652;SDS011;9900;48.738;9.306;2023-03-01T05:33:11;28.40;;;13.03;;
4652;SDS011;9900;48.738;9.306;2023-03-01T05:35:41;17.40;;;11.53;;
4652;SDS011;9900;48.738;9.306;2023-03-01T05:38:12;22.10;;;11.87;;
4652;SDS011;9900;48.738;9.306;2023-03-01T05:40:41;19.10;;;12.13;;
4652;SDS011;9900;48.738;9.306;2023-03-01T05:43:11;20.63;;;11.57;;
4652;SDS011;9900;48.738;9.306;2023-03-01T05:45:41;18.97;;;11.17;;
4652;SDS011;9900;48.738;9.306;2023-03-01T05:48:10;18.00;;;12.20;;
4652;SDS011;9900;48.738;9.306;2023-03-01T05:50:40;21.97;;;11.90;;
4652;SDS011;9900;48.738;9.306;2023-03-01T05:53:10;19.47;;;12.47;;
4652;SDS011;9900;48.738;9.306;2023-03-01T05:55:41;18.33;;;11.80;;
4652;SDS011;9900;48.738;9.306;2023-03-01T05:58:11;20.00;;;12.13;;
4652;SDS011;9900;48.738;9.306;2023-03-01T06:00:43;17.87;;;12.17;;
4652;SDS011;9900;48.738;9.306;2023-03-01T06:03:13;21.53;;;12.23;;
4652;SDS011;9900;48.738;9.306;2023-03-01T06:05:43;22.37;;;12.00;;
4652;SDS011;9900;48.738;9.306;2023-03-01T06:08:13;20.00;;;12.70;;
4652;SDS011;9900;48.738;9.306;2023-03-01T06:10:42;18.53;;;11.67;;
4652;SDS011;9900;48.738;9.306;2023-03-01T06:13:11;23.10;;;12.17;;
4652;SDS011;9900;48.738;9.306;2023-03-01T06:15:40;18.97;;;11.80;;
4652;SDS011;9900;48.738;9.306;2023-03-01T06:18:08;22.20;;;12.70;;
4652;SDS011;9900;48.738;9.306;2023-03-01T06:20:37;21.30;;;12.90;;
4652;SDS011;9900;48.738;9.306;2023-03-01T06:23:06;22.47;;;11.60;;
4652;SDS011;9900;48.738;9.306;2023-03-01T06:25:38;21.95;;;14.63;;
4652;SDS011;9900;48.738;9.306;2023-03-01T06:28:06;19.83;;;13.30;;
4652;SDS011;9900;48.738;9.306;2023-03-01T06:30:35;24.83;;;13.40;;
4652;SDS011;9900;48.738;9.306;2023-03-01T06:33:04;18.67;;;11.20;;
4652;SDS011;9900;48.738;9.306;2023-03-01T06:35:32;19.07;;;12.10;;
4652;SDS011;9900;48.738;9.306;2023-03-01T06:38:02;19.77;;;12.47;;
4652;SDS011;9900;48.738;9.306;2023-03-01T06:40:31;21.40;;;12.83;;
4652;SDS011;9900;48.738;9.306;2023-03-01T06:43:04;20.07;;;12.60;;
4652;SDS011;9900;48.738;9.306;2023-03-01T06:45:34;17.63;;;11.30;;
4652;SDS011;9900;48.738;9.306;2023-03-01T06:48:03;21.90;;;12.50;;
4652;SDS011;9900;48.738;9.306;2023-03-01T06:50:32;17.50;;;11.37;;
4652;SDS011;9900;48.738;9.306;2023-03-01T06:53:01;17.70;;;12.03;;
4652;SDS011;9900;48.738;9.306;2023-03-01T06:55:31;20.23;;;12.20;;
4652;SDS011;9900;48.738;9.306;2023-03-01T06:58:00;20.20;;;11.30;;
4652;SDS011;9900;48.738;9.306;2023-03-01T07:00:31;23.00;;;12.17;;
4652;SDS011;9900;48.738;9.306;2023-03-01T07:03:00;17.87;;;11.50;;
4652;SDS011;9900;48.738;9.306;2023-03-01T07:05:30;19.97;;;12.20;;
4652;SDS011;9900;48.738;9.306;2023-03-01T07:07:59;21.33;;;12.10;;
4652;SDS011;9900;48.738;9.306;2023-03-01T07:10:27;19.10;;;11.93;;
4652;SDS011;9900;48.738;9.306;2023-03-01T07:12:56;20.40;;;12.83;;
4652;SDS011;9900;48.738;9.306;2023-03-01T07:15:25;19.37;;;11.70;;
4652;SDS011;9900;48.738;9.306;2023-03-01T07:17:57;18.30;;;12.90;;
4652;SDS011;9900;48.738;9.306;2023-03-01T07:20:25;21.80;;;13.10;;
4652;SDS011;9900;48.738;9.306;2023-03-01T07:22:54;21.70;;;13.03;;
4652;SDS011;9900;48.738;9.306;2023-03-01T07:25:25;20.60;;;12.73;;
4652;SDS011;9900;48.738;9.306;2023-03-01T07:27:54;19.50;;;13.20;;
4652;SDS011;9900;48.738;9.306;2023-03-01T07:30:23;19.70;;;11.83;;
4652;SDS011;9900;48.738;9.306;2023-03-01T07:32:53;20.17;;;13.30;;
4652;SDS011;9900;48.738;9.306;2023-03-01T07:35:24;19.57;;;11.60;;
4652;SDS011;9900;48.738;9.306;2023-03-01T07:37:53;22.47;;;12.20;;
4652;SDS011;9900;48.738;9.306;2023-03-01T07:40:22;19.70;;;12.00;;
4652;SDS011;9900;48.738;9.306;2023-03-01T07:42:54;19.73;;;12.43;;
4652;SDS011;9900;48.738;9.306;2023-03-01T07:45:23;19.57;;;11.77;;
4652;SDS011;9900;48.738;9.306;2023-03-01T07:47:52;18.97;;;11.80;;
4652;SDS011;9900;48.738;9.306;2023-03-01T07:50:21;21.43;;;12.60;;
4652;SDS011;9900;48.738;9.306;2023-03-01T07:52:52;17.50;;;12.17;;
4652;SDS011;9900;48.738;9.306;2023-03-01T07:55:21;24.30;;;12.90;;
4652;SDS011;9900;48.738;9.306;2023-03-01T07:57:49;22.30;;;12.60;;
4652;SDS011;9900;48.738;9.306;2023-03-01T08:00:18;23.40;;;13.77;;
4652;SDS011;9900;48.738;9.306;2023-03-01T08:02:47;23.03;;;14.03;;
4652;SDS011;9900;48.738;9.306;2023-03-01T08:05:16;21.53;;;13.70;;
4652;SDS011;9900;48.738;9.306;2023-03-01T08:07:45;20.17;;;13.37;;
4652;SDS011;9900;48.738;9.306;2023-03-01T08:10:15;21.73;;;13.17;;
4652;SDS011;9900;48.738;9.306;2023-03-01T08:12:44;20.10;;;12.73;;
4652;SDS011;9900;48.738;9.306;2023-03-01T08:15:12;23.90;;;13.80;;
4652;SDS011;9900;48.738;9.306;2023-03-01T08:17:41;22.47;;;13.27;;
4652;SDS011;9900;48.738;9.306;2023-03-01T08:20:10;21.73;;;13.33;;
4652;SDS011;9900;48.738;9.306;2023-03-01T08:22:39;23.33;;;13.40;;
4652;SDS011;9900;48.738;9.306;2023-03-01T08:25:08;22.10;;;12.73;;
4652;SDS011;9900;48.738;9.306;2023-03-01T08:27:39;23.60;;;12.83;;
4652;SDS011;9900;48.738;9.306;2023-03-01T08:30:08;20.80;;;13.63;;
4652;SDS011;9900;48.738;9.306;2023-03-01T08:32:38;24.00;;;14.30;;
4652;SDS011;9900;48.738;9.306;2023-03-01T08:35:07;26.83;;;13.83;;
4652;SDS011;9900;48.738;9.306;2023-03-01T08:37:36;20.47;;;12.47;;
4652;SDS011;9900;48.738;9.306;2023-03-01T08:40:06;26.73;;;14.00;;
4652;SDS011;9900;48.738;9.306;2023-03-01T08:42:38;21.30;;;13.87;;
4652;SDS011;9900;48.738;9.306;2023-03-01T08:45:08;24.03;;;13.67;;
4652;SDS011;9900;48.738;9.306;2023-03-01T08:47:38;17.20;;;12.40;;
4652;SDS011;9900;48.738;9.306;2023-03-01T08:50:07;20.13;;;12.60;;
4652;SDS011;9900;48.738;9.306;2023-03-01T08:52:37;20.87;;;12.97;;
4652;SDS011;9900;48.738;9.306;2023-03-01T08:55:06;20.23;;;13.30;;
4652;SDS011;9900;48.738;9.306;2023-03-01T08:57:36;24.73;;;13.80;;
4652;SDS011;9900;48.738;9.306;2023-03-01T09:00:06;29.40;;;13.43;;
4652;SDS011;9900;48.738;9.306;2023-03-01T09:02:36;24.83;;;13.13;;
4652;SDS011;9900;48.738;9.306;2023-03-01T09:05:06;22.27;;;12.90;;
4652;SDS011;9900;48.738;9.306;2023-03-01T09:07:35;20.40;;;12.20;;
4652;SDS011;9900;48.738;9.306;2023-03-01T09:10:04;20.87;;;13.37;;
4652;SDS011;9900;48.738;9.306;2023-03-01T09:12:33;20.10;;;12.93;;
4652;SDS011;9900;48.738;9.306;2023-03-01T09:15:02;21.57;;;12.60;;
4652;SDS011;9900;48.738;9.306;2023-03-01T09:17:33;19.90;;;12.50;;
4652;SDS011;9900;48.738;9.306;2023-03-01T09:20:01;21.60;;;13.23;;
4652;SDS011;9900;48.738;9.306;2023-03-01T09:22:32;23.37;;;12.90;;
4652;SDS011;9900;48.738;9.306;2023-03-01T09:25:01;18.37;;;12.53;;
4652;SDS011;9900;48.738;9.306;2023-03-01T09:27:30;20.77;;;14.30;;
4652;SDS011;9900;48.738;9.306;2023-03-01T09:29:58;25.70;;;13.90;;
4652;SDS011;9900;48.738;9.306;2023-03-01T09:32:28;22.67;;;13.13;;
4652;SDS011;9900;48.738;9.306;2023-03-01T09:34:59;20.33;;;12.13;;
4652;SDS011;9900;48.738;9.306;2023-03-01T09:37:34;24.43;;;13.53;;
4652;SDS011;9900;48.738;9.306;2023-03-01T09:40:05;21.93;;;12.93;;
4652;SDS011;9900;48.738;9.306;2023-03-01T09:42:35;23.03;;;14.00;;
4652;SDS011;9900;48.738;9.306;2023-03-01T09:45:05;23.37;;;13.70;;
4652;SDS011;9900;48.738;9.306;2023-03-01T09:47:35;25.27;;;13.60;;
4652;SDS011;9900;48.738;9.306;2023-03-01T09:50:06;21.63;;;13.43;;
4652;SDS011;9900;48.738;9.306;2023-03-01T09:52:40;21.97;;;14.30;;
4652;SDS011;9900;48.738;9.306;2023-03-01T09:55:11;18.43;;;12.13;;
4652;SDS011;9900;48.738;9.306;2023-03-01T09:57:43;22.13;;;13.20;;
4652;SDS011;9900;48.738;9.306;2023-03-01T10:00:17;20.70;;;13.20;;
4652;SDS011;9900;48.738;9.306;2023-03-01T10:02:51;22.87;;;13.70;;
4652;SDS011;9900;48.738;9.306;2023-03-01T10:05:27;20.07;;;12.60;;
4652;SDS011;9900;48.738;9.306;2023-03-01T10:08:06;22.40;;;13.73;;
4652;SDS011;9900;48.738;9.306;2023-03-01T10:10:48;20.17;;;12.50;;
4652;SDS011;9900;48.738;9.306;2023-03-01T10:13:19;23.90;;;13.30;;
4652;SDS011;9900;48.738;9.306;2023-03-01T10:15:52;28.57;;;13.77;;
4652;SDS011;9900;48.738;9.306;2023-03-01T10:18:24;19.50;;;12.73;;
4652;SDS011;9900;48.738;9.306;2023-03-01T10:20:57;19.10;;;12.73;;
4652;SDS011;9900;48.738;9.306;2023-03-01T10:23:28;21.37;;;12.70;;
4652;SDS011;9900;48.738;9.306;2023-03-01T10:26:03;20.90;;;13.27;;
4652;SDS011;9900;48.738;9.306;2023-03-01T10:28:54;20.17;;;13.00;;
4652;SDS011;9900;48.738;9.306;2023-03-01T10:31:30;21.30;;;12.67;;
4652;SDS011;9900;48.738;9.306;2023-03-01T10:34:11;24.13;;;12.47;;
4652;SDS011;9900;48.738;9.306;2023-03-01T10:36:42;21.13;;;13.27;;
4652;SDS011;9900;48.738;9.306;2023-03-01T10:39:13;22.43;;;13.17;;
4652;SDS011;9900;48.738;9.306;2023-03-01T10:41:57;19.80;;;12.50;;
4652;SDS011;9900;48.738;9.306;2023-03-01T10:44:40;19.37;;;12.77;;
4652;SDS011;9900;48.738;9.306;2023-03-01T10:47:14;20.43;;;12.73;;
4652;SDS011;9900;48.738;9.306;2023-03-01T10:49:51;19.90;;;13.13;;
4652;SDS011;9900;48.738;9.306;2023-03-01T10:52:28;23.43;;;13.20;;
4652;SDS011;9900;48.738;9.306;2023-03-01T10:55:02;21.17;;;13.20;;
4652;SDS011;9900;48.738;9.306;2023-03-01T10:57:34;20.17;;;13.20;;
4652;SDS011;9900;48.738;9.306;2023-03-01T11:00:19;21.63;;;13.23;;
4652;SDS011;9900;48.738;9.306;2023-03-01T11:02:51;16.83;;;11.03;;
4652;SDS011;9900;48.738;9.306;2023-03-01T11:05:31;20.90;;;12.40;;
4652;SDS011;9900;48.738;9.306;2023-03-01T11:08:02;21.63;;;13.20;;
4652;SDS011;9900;48.738;9.306;2023-03-01T11:10:32;20.60;;;13.03;;
4652;SDS011;9900;48.738;9.306;2023-03-01T11:13:06;20.43;;;13.33;;
4652;SDS011;9900;48.738;9.306;2023-03-01T11:15:35;20.97;;;13.97;;
4652;SDS011;9900;48.738;9.306;2023-03-01T11:18:04;18.67;;;12.30;;
4652;SDS011;9900;48.738;9.306;2023-03-01T11:20:40;17.83;;;12.80;;
4652;SDS011;9900;48.738;9.306;2023-03-01T11:23:12;20.80;;;13.63;;
4652;SDS011;9900;48.738;9.306;2023-03-01T11:25:42;18.93;;;13.40;;
4652;SDS011;9900;48.738;9.306;2023-03-01T11:28:13;21.70;;;12.63;;
4652;SDS011;9900;48.738;9.306;2023-03-01T11:30:46;22.20;;;13.63;;
4652;SDS011;9900;48.738;9.306;2023-03-01T11:33:35;20.37;;;12.73;;
4652;SDS011;9900;48.738;9.306;2023-03-01T11:36:07;18.83;;;13.53;;
4652;SDS011;9900;48.738;9.306;2023-03-01T11:38:43;16.93;;;12.30;;
4652;SDS011;9900;48.738;9.306;2023-03-01T11:41:12;19.97;;;13.27;;
4652;SDS011;9900;48.738;9.306;2023-03-01T11:43:46;19.07;;;14.03;;
4652;SDS011;9900;48.738;9.306;2023-03-01T11:49:23;21.90;;;13.03;;
4652;SDS011;9900;48.738;9.306;2023-03-01T11:52:05;18.87;;;12.57;;
4652;SDS011;9900;48.738;9.306;2023-03-01T11:54:44;20.40;;;13.20;;
4652;SDS011;9900;48.738;9.306;2023-03-01T11:57:20;21.10;;;12.50;;
4652;SDS011;9900;48.738;9.306;2023-03-01T12:00:14;21.17;;;12.10;;
4652;SDS011;9900;48.738;9.306;2023-03-01T12:06:05;17.93;;;12.10;;
4652;SDS011;9900;48.738;9.306;2023-03-01T12:08:41;15.53;;;11.67;;
4652;SDS011;9900;48.738;9.306;2023-03-01T12:11:16;17.47;;;12.60;;
4652;SDS011;9900;48.738;9.306;2023-03-01T12:13:58;16.83;;;12.30;;
4652;SDS011;9900;48.738;9.306;2023-03-01T12:16:34;16.80;;;12.17;;
4652;SDS011;9900;48.738;9.306;2023-03-01T12:19:13;19.13;;;13.10;;
4652;SDS011;9900;48.738;9.306;2023-03-01T12:21:50;18.47;;;12.80;;
4652;SDS011;9900;48.738;9.306;2023-03-01T12:24:38;18.00;;;12.40;;
4652;SDS011;9900;48.738;9.306;2023-03-01T12:27:19;18.30;;;11.97;;
4652;SDS011;9900;48.738;9.306;2023-03-01T12:30:00;17.90;;;12.17;;
4652;SDS011;9900;48.738;9.306;2023-03-01T12:32:40;19.90;;;11.50;;
4652;SDS011;9900;48.738;9.306;2023-03-01T12:35:23;19.57;;;12.27;;
4652;SDS011;9900;48.738;9.306;2023-03-01T12:38:14;20.13;;;13.33;;
4652;SDS011;9900;48.738;9.306;2023-03-01T12:41:04;20.27;;;13.37;;
4652;SDS011;9900;48.738;9.306;2023-03-01T12:43:49;16.90;;;11.70;;
4652;SDS011;9900;48.738;9.306;2023-03-01T12:46:25;17.87;;;12.53;;
4652;SDS011;9900;48.738;9.306;2023-03-01T12:49:02;19.67;;;11.80;;
4652;SDS011;9900;48.738;9.306;2023-03-01T12:51:37;17.57;;;11.90;;
4652;SDS011;9900;48.738;9.306;2023-03-01T12:54:07;17.73;;;12.07;;
4652;SDS011;9900;48.738;9.306;2023-03-01T12:56:42;17.23;;;11.57;;
4652;SDS011;9900;48.738;9.306;2023-03-01T12:59:21;21.80;;;12.50;;
4652;SDS011;9900;48.738;9.306;2023-03-01T13:01:56;17.63;;;12.10;;
4652;SDS011;9900;48.738;9.306;2023-03-01T13:04:40;17.93;;;12.47;;
4652;SDS011;9900;48.738;9.306;2023-03-01T13:07:23;15.60;;;11.60;;
4652;SDS011;9900;48.738;9.306;2023-03-01T13:09:56;16.77;;;12.10;;
4652;SDS011;9900;48.738;9.306;2023-03-01T13:12:43;15.40;;;10.87;;
4652;SDS011;9900;48.738;9.306;2023-03-01T13:20:56;17.77;;;12.30;;
4652;SDS011;9900;48.738;9.306;2023-03-01T13:23:27;18.50;;;11.80;;
4652;SDS011;9900;48.738;9.306;2023-03-01T13:34:48;17.70;;;12.10;;
4652;SDS011;9900;48.738;9.306;2023-03-01T13:37:22;20.03;;;12.80;;
4652;SDS011;9900;48.738;9.306;2023-03-01T13:39:57;15.30;;;10.63;;
4652;SDS011;9900;48.738;9.306;2023-03-01T13:42:39;17.27;;;11.90;;
4652;SDS011;9900;48.738;9.306;2023-03-01T13:45:18;15.67;;;10.87;;
4652;SDS011;9900;48.738;9.306;2023-03-01T13:47:51;15.80;;;11.13;;
4652;SDS011;9900;48.738;9.306;2023-03-01T13:50:22;15.83;;;11.20;;
4652;SDS011;9900;48.738;9.306;2023-03-01T13:52:53;15.23;;;10.57;;
4652;SDS011;9900;48.738;9.306;2023-03-01T13:55:28;15.77;;;11.00;;
4652;SDS011;9900;48.738;9.306;2023-03-01T13:58:02;14.90;;;10.70;;
4652;SDS011;9900;48.738;9.306;2023-03-01T14:00:34;14.10;;;10.30;;
4652;SDS011;9900;48.738;9.306;2023-03-01T14:03:09;14.90;;;10.83;;
4652;SDS011;9900;48.738;9.306;2023-03-01T14:05:40;15.80;;;11.83;;
4652;SDS011;9900;48.738;9.306;2023-03-01T14:08:20;16.70;;;11.43;;
4652;SDS011;9900;48.738;9.306;2023-03-01T14:10:53;14.33;;;10.20;;
4652;SDS011;9900;48.738;9.306;2023-03-01T14:13:30;17.97;;;11.33;;
4652;SDS011;9900;48.738;9.306;2023-03-01T14:16:09;16.20;;;11.67;;
4652;SDS011;9900;48.738;9.306;2023-03-01T14:18:47;17.80;;;11.47;;
4652;SDS011;9900;48.738;9.306;2023-03-01T14:21:20;17.00;;;11.47;;
4652;SDS011;9900;48.738;9.306;2023-03-01T14:23:49;18.67;;;10.50;;
4652;SDS011;9900;48.738;9.306;2023-03-01T14:26:20;21.17;;;12.17;;
4652;SDS011;9900;48.738;9.306;2023-03-01T14:28:49;16.83;;;12.30;;
4652;SDS011;9900;48.738;9.306;2023-03-01T14:34:21;20.00;;;12.77;;
4652;SDS011;9900;48.738;9.306;2023-03-01T14:36:51;16.63;;;11.83;;
4652;SDS011;9900;48.738;9.306;2023-03-01T14:39:20;18.80;;;12.60;;
4652;SDS011;9900;48.738;9.306;2023-03-01T14:41:53;17.00;;;11.73;;
4652;SDS011;9900;48.738;9.306;2023-03-01T14:44:25;20.37;;;12.13;;
4652;SDS011;9900;48.738;9.306;2023-03-01T14:46:54;17.63;;;12.13;;
4652;SDS011;9900;48.738;9.306;2023-03-01T14:49:27;19.37;;;13.43;;
4652;SDS011;9900;48.738;9.306;2023-03-01T14:51:58;17.03;;;11.93;;
4652;SDS011;9900;48.738;9.306;2023-03-01T14:54:29;17.67;;;11.63;;
4652;SDS011;9900;48.738;9.306;2023-03-01T14:57:03;15.67;;;11.40;;
4652;SDS011;9900;48.738;9.306;2023-03-01T14:59:32;15.77;;;11.10;;
4652;SDS011;9900;48.738;9.306;2023-03-01T15:02:01;15.70;;;10.70;;
4652;SDS011;9900;48.738;9.306;2023-03-01T15:04:32;17.50;;;12.03;;
4652;SDS011;9900;48.738;9.306;2023-03-01T15:07:01;15.57;;;11.30;;
4652;SDS011;9900;48.738;9.306;2023-03-01T15:09:32;19.73;;;12.77;;
4652;SDS011;9900;48.738;9.306;2023-03-01T15:14:53;17.50;;;12.17;;
4652;SDS011;9900;48.738;9.306;2023-03-01T15:17:31;15.63;;;11.37;;
4652;SDS011;9900;48.738;9.306;2023-03-01T15:20:03;16.00;;;11.10;;
4652;SDS011;9900;48.738;9.306;2023-03-01T15:22:34;16.17;;;11.07;;
4652;SDS011;9900;48.738;9.306;2023-03-01T15:25:03;20.20;;;11.60;;
4652;SDS011;9900;48.738;9.306;2023-03-01T15:27:33;16.30;;;10.63;;
4652;SDS011;9900;48.738;9.306;2023-03-01T15:30:04;17.40;;;11.80;;
4652;SDS011;9900;48.738;9.306;2023-03-01T15:32:34;18.20;;;11.03;;
4652;SDS011;9900;48.738;9.306;2023-03-01T15:40:52;19.53;;;12.67;;
4652;SDS011;9900;48.738;9.306;2023-03-01T15:43:38;16.30;;;12.10;;
4652;SDS011;9900;48.738;9.306;2023-03-01T15:46:14;22.27;;;12.07;;
4652;SDS011;9900;48.738;9.306;2023-03-01T15:48:45;16.83;;;11.90;;